KMSN/MSN METAR and TAF weather

Enter ICAO airport designator
Station Type Date Time Source
KMSN METAR 2020/09/22 20:53 UTC NOAA

KMSN 222053Z 22005KT 10SM FEW150 25/14 A3007 RMK AO2 SLP182 T02500144 56020


Station Type Date Time Source
KMSN Decoded METAR 2020/09/22 20:53 UTC NOAA

MADISON DANE COUNTY RGNL, WI, United States (KMSN) 43-08N 89-21W 261M
Sep 22, 2020 - 04:53 PM EDT / 2020.09.22 2053 UTC
Wind: from the SW (220 degrees) at 6 MPH (5 KT):0
Visibility: 10 mile(s):0
Sky conditions: mostly clear
Temperature: 77.0 F (25.0 C)
Dew Point: 57.9 F (14.4 C)
Relative Humidity: 51%
Pressure (altimeter): 30.07 in. Hg (1018 hPa)
Pressure tendency: 0.06 inches (2.0 hPa) lower than three hours ago
ob: KMSN 222053Z 22005KT 10SM FEW150 25/14 A3007 RMK AO2 SLP182 T02500144 56020
cycle: 21

Station Type Date Time Source
KMSN TAF 2020/09/22 21:51 UTC NOAA

TAF
AMD KMSN 222048Z 2221/2318 23005KT P6SM FEW150
FM230000 22004KT P6SM FEW250
FM231500 23006KT P6SM FEW250

Example: see airport list